Time;durP1;ratioP1;P1;durP2;ratioP2;P2;SDS_P1;SDS_P2;PMS_P1;PMS_P2;Temp;Humidity;BMP_temperature;BMP_pressure;BME280_temperature;BME280_humidity;BME280_pressure;Samples;Min_cycle;Max_cycle;Signal;HPM_P1;HPM_P2
2022/07/26 00:00:55;;;;;;;7.55;2.20;;;;;;;20.08;73.07;101230.88;5031349;28;20113;-77
2022/07/26 00:03:21;;;;;;;10.05;2.08;;;;;;;20.00;71.61;101223.03;5030736;28;20101;-77
2022/07/26 00:05:46;;;;;;;13.45;2.15;;;;;;;19.99;70.85;101231.50;5031149;28;20026;-77
2022/07/26 00:08:11;;;;;;;11.23;2.42;;;;;;;19.98;70.61;101235.28;5013567;28;20490;-77
2022/07/26 00:10:39;;;;;;;9.73;2.15;;;;;;;19.93;71.48;101245.03;5031210;28;20032;-76
2022/07/26 00:13:05;;;;;;;12.77;1.73;;;;;;;19.85;71.69;101242.63;5031330;28;20037;-77
2022/07/26 00:15:30;;;;;;;9.80;2.13;;;;;;;19.88;70.80;101253.09;5013383;28;20330;-77
2022/07/26 00:17:55;;;;;;;9.63;1.98;;;;;;;19.85;70.62;101249.97;5031054;28;20044;-77
2022/07/26 00:20:21;;;;;;;7.28;1.60;;;;;;;19.85;70.53;101250.81;5031142;28;20036;-77
2022/07/26 00:22:46;;;;;;;6.20;2.05;;;;;;;19.83;70.67;101250.22;4998791;28;20428;-77
2022/07/26 00:25:11;;;;;;;8.43;1.52;;;;;;;19.74;70.06;101257.91;5033325;28;20029;-77
2022/07/26 00:27:37;;;;;;;8.68;1.95;;;;;;;19.79;69.09;101259.09;5032717;28;20031;-78
2022/07/26 00:30:05;;;;;;;5.40;1.50;;;;;;;19.74;68.64;101259.78;5013543;28;20048;-75
2022/07/26 00:32:30;;;;;;;5.22;1.58;;;;;;;19.73;68.55;101260.88;5013789;28;20022;-77
2022/07/26 00:34:55;;;;;;;7.82;1.88;;;;;;;19.76;68.34;101257.66;5013046;28;20137;-78
2022/07/26 00:37:21;;;;;;;7.70;1.63;;;;;;;19.75;67.72;101256.03;5031171;28;20025;-77
2022/07/26 00:39:46;;;;;;;7.88;1.95;;;;;;;19.71;67.74;101268.47;5013094;28;20040;-76
2022/07/26 00:42:12;;;;;;;24.17;2.00;;;;;;;19.69;67.98;101263.22;5013217;28;20032;-77
2022/07/26 00:44:40;;;;;;;7.05;2.08;;;;;;;19.65;68.29;101263.91;5031802;28;20021;-77
2022/07/26 00:47:05;;;;;;;12.23;1.88;;;;;;;19.63;68.41;101266.84;5013456;28;20071;-76
2022/07/26 00:49:31;;;;;;;10.82;2.08;;;;;;;19.62;68.99;101264.38;5031643;28;20101;-77
2022/07/26 00:51:56;;;;;;;7.30;1.90;;;;;;;19.57;69.52;101272.41;5013651;28;20037;-77
2022/07/26 00:54:22;;;;;;;10.40;1.70;;;;;;;19.52;70.63;101275.84;5016951;28;20056;-75
2022/07/26 00:56:47;;;;;;;6.03;1.70;;;;;;;19.47;71.05;101272.97;5014198;28;20048;-76
2022/07/26 00:59:12;;;;;;;7.15;1.75;;;;;;;19.41;71.44;101269.25;5031159;28;20060;-76
2022/07/26 01:01:38;;;;;;;12.18;1.80;;;;;;;19.40;71.95;101274.94;5031282;28;20115;-77
2022/07/26 01:04:04;;;;;;;8.82;1.65;;;;;;;19.32;71.62;101278.81;5013387;28;20029;-77
2022/07/26 01:06:29;;;;;;;5.78;1.70;;;;;;;19.31;71.42;101290.81;5012989;28;20029;-76
2022/07/26 01:08:54;;;;;;;17.30;2.47;;;;;;;19.25;71.25;101281.66;5013011;28;20487;-77
2022/07/26 01:11:20;;;;;;;8.50;2.08;;;;;;;19.22;71.98;101282.09;5013116;28;20497;-77
2022/07/26 01:13:49;;;;;;;9.63;1.95;;;;;;;19.17;72.26;101283.81;5030400;28;20030;-76
2022/07/26 01:16:15;;;;;;;14.13;2.42;;;;;;;19.14;72.28;101290.59;5016485;28;20041;-77
2022/07/26 01:18:41;;;;;;;9.25;2.05;;;;;;;19.10;71.77;101296.75;5034099;28;20056;-75
2022/07/26 01:21:08;;;;;;;13.10;2.72;;;;;;;19.05;71.70;101289.22;5016673;28;20065;-76
2022/07/26 01:23:34;;;;;;;6.95;1.92;;;;;;;19.04;72.36;101293.03;5034211;28;20017;-76
2022/07/26 01:25:59;;;;;;;17.60;2.38;;;;;;;18.99;73.38;101293.69;5016499;28;20036;-76
2022/07/26 01:28:25;;;;;;;8.80;2.20;;;;;;;18.96;73.50;101288.69;5034036;28;20111;-77
2022/07/26 01:30:50;;;;;;;12.10;2.20;;;;;;;18.94;73.22;101292.72;5016385;28;20026;-77
2022/07/26 01:33:16;;;;;;;15.23;2.67;;;;;;;18.88;73.36;101290.88;5016219;28;20036;-77
2022/07/26 01:35:41;;;;;;;11.95;2.17;;;;;;;18.79;73.94;101288.44;5033853;28;20049;-77
2022/07/26 01:38:06;;;;;;;10.98;2.50;;;;;;;18.83;74.12;101288.84;5016113;28;20041;-78
2022/07/26 01:40:32;;;;;;;9.52;2.17;;;;;;;18.82;74.60;101298.06;5015858;28;20064;-75
2022/07/26 01:42:57;;;;;;;14.48;2.58;;;;;;;18.84;74.85;101295.97;5033390;28;20367;-76
2022/07/26 01:45:22;;;;;;;11.95;2.05;;;;;;;18.84;74.98;101295.97;5033816;28;20022;-76
2022/07/26 01:47:48;;;;;;;8.45;1.85;;;;;;;18.85;75.02;101303.06;5016015;28;20032;-76
2022/07/26 01:50:15;;;;;;;9.88;1.70;;;;;;;18.80;74.85;101295.59;5033433;28;20022;-77
2022/07/26 01:52:40;;;;;;;10.85;2.30;;;;;;;18.81;75.35;101296.41;5015459;28;20025;-77
2022/07/26 01:55:06;;;;;;;11.75;2.05;;;;;;;18.81;75.79;101297.25;5033536;28;20120;-77
2022/07/26 01:57:31;;;;;;;12.70;2.03;;;;;;;18.77;76.71;101297.91;5032070;28;20036;-78
2022/07/26 01:59:56;;;;;;;12.90;2.17;;;;;;;18.76;77.10;101297.09;5015490;28;20393;-77
2022/07/26 02:02:23;;;;;;;8.40;1.73;;;;;;;18.73;77.00;101299.41;5015528;28;20108;-77
2022/07/26 02:04:57;;;;;;;8.80;1.52;;;;;;;18.72;76.56;101303.16;5033028;28;20029;-76
2022/07/26 02:07:23;;;;;;;7.55;1.35;;;;;;;18.65;76.56;101304.06;5033245;28;20034;-77
2022/07/26 02:09:49;;;;;;;13.25;1.30;;;;;;;18.64;76.83;101307.88;5032992;28;20028;-77
2022/07/26 02:12:14;;;;;;;8.30;1.80;;;;;;;18.65;77.37;101305.97;5015839;28;20041;-77
2022/07/26 02:14:39;;;;;;;15.18;2.50;;;;;;;18.67;77.66;101303.88;5033460;28;20032;-77
2022/07/26 02:17:05;;;;;;;14.82;2.17;;;;;;;18.64;78.31;101302.41;5034179;28;20021;-76
2022/07/26 02:19:30;;;;;;;7.22;1.67;;;;;;;18.54;78.73;101307.53;5036955;28;20124;-77
2022/07/26 02:21:56;;;;;;;11.32;2.08;;;;;;;18.51;79.11;101310.72;5038556;28;20093;-77
2022/07/26 02:24:21;;;;;;;12.48;2.40;;;;;;;18.47;79.11;101319.56;5020015;28;20029;-77
2022/07/26 02:26:47;;;;;;;12.75;1.80;;;;;;;18.43;79.42;101309.09;5034693;28;20040;-77
2022/07/26 02:29:12;;;;;;;7.70;1.63;;;;;;;18.39;79.42;101315.22;5015978;28;20061;-77
2022/07/26 02:31:37;;;;;;;8.27;1.50;;;;;;;18.35;79.74;101308.53;5015718;28;20029;-76
2022/07/26 02:34:03;;;;;;;9.95;1.75;;;;;;;18.33;79.88;101311.50;5093362;22;20042;-79
2022/07/26 02:36:28;;;;;;;8.13;1.90;;;;;;;18.31;80.49;101313.59;5048927;28;20029;-78
2022/07/26 02:38:53;;;;;;;12.00;2.13;;;;;;;18.29;80.05;101315.72;5034030;28;20486;-76
2022/07/26 02:41:19;;;;;;;10.00;1.52;;;;;;;18.25;80.21;101321.84;5025177;28;20053;-77
2022/07/26 02:43:44;;;;;;;8.18;1.60;;;;;;;18.23;80.42;101315.78;5041487;28;20033;-77
2022/07/26 02:46:10;;;;;;;8.35;1.50;;;;;;;18.23;80.56;101316.59;5045513;28;20032;-77
2022/07/26 02:48:35;;;;;;;6.55;1.45;;;;;;;18.24;80.51;101314.72;5046488;28;20021;-78
2022/07/26 02:51:01;;;;;;;11.20;2.00;;;;;;;18.23;79.85;101322.06;5045440;28;20116;-76
2022/07/26 02:53:26;;;;;;;10.50;1.77;;;;;;;18.23;79.53;101316.59;5045114;28;20042;-77
2022/07/26 02:55:52;;;;;;;8.20;1.67;;;;;;;18.24;79.86;101322.88;5046323;28;20036;-75
2022/07/26 02:58:20;;;;;;;8.65;1.60;;;;;;;18.26;80.07;101323.50;5042631;28;20033;-77
2022/07/26 03:00:45;;;;;;;6.53;1.48;;;;;;;18.25;80.38;101332.75;5042016;28;20071;-78
2022/07/26 03:03:12;;;;;;;11.18;1.80;;;;;;;18.25;80.37;101319.13;5045319;28;20085;-78
2022/07/26 03:05:38;;;;;;;5.90;1.58;;;;;;;18.31;80.63;101326.41;5044321;28;20022;-76
2022/07/26 03:08:04;;;;;;;9.77;2.05;;;;;;;18.30;80.40;101324.72;5041240;28;20052;-78
2022/07/26 03:10:29;;;;;;;5.55;1.77;;;;;;;18.28;80.26;101324.13;5023793;28;20033;-77
2022/07/26 03:12:55;;;;;;;7.43;1.45;;;;;;;18.28;80.74;101329.56;5020911;28;20072;-76
2022/07/26 03:15:20;;;;;;;6.30;1.65;;;;;;;18.26;80.85;101326.22;5021469;28;20029;-77
2022/07/26 03:17:46;;;;;;;12.25;2.10;;;;;;;18.24;80.55;101339.22;5023391;28;20101;-77
2022/07/26 03:20:11;;;;;;;7.38;1.63;;;;;;;18.27;80.05;101344.22;5024713;28;20100;-77
2022/07/26 03:22:38;;;;;;;5.47;1.80;;;;;;;18.27;80.01;101344.22;5025326;28;20118;-76
2022/07/26 03:25:04;;;;;;;5.32;1.80;;;;;;;18.25;79.93;101332.75;5022981;28;20056;-75
2022/07/26 03:27:29;;;;;;;4.97;1.80;;;;;;;18.28;79.83;101335.03;5025726;28;20033;-77
2022/07/26 03:29:54;;;;;;;9.13;1.55;;;;;;;18.20;79.82;101342.41;5024963;28;20026;-76
2022/07/26 03:32:20;;;;;;;7.22;1.67;;;;;;;18.20;79.86;101342.41;5040607;28;20053;-76
2022/07/26 03:34:45;;;;;;;5.65;1.40;;;;;;;18.14;80.35;101337.84;5023584;28;20525;-77
2022/07/26 03:37:11;;;;;;;8.10;1.88;;;;;;;18.12;80.33;101345.38;5023669;28;20052;-77
2022/07/26 03:39:37;;;;;;;8.27;1.60;;;;;;;18.09;80.49;101339.53;5025576;28;20060;-78
2022/07/26 03:42:03;;;;;;;5.93;1.60;;;;;;;18.04;80.65;101345.66;5022679;28;20060;-77
2022/07/26 03:44:28;;;;;;;11.48;1.60;;;;;;;18.06;80.80;101359.91;5026342;28;20061;-79
2022/07/26 03:46:54;;;;;;;8.13;1.85;;;;;;;18.05;80.63;101355.47;5025198;28;20026;-79
2022/07/26 03:49:19;;;;;;;4.30;1.60;;;;;;;18.02;80.42;101358.66;5024031;28;20383;-78
2022/07/26 03:51:45;;;;;;;7.00;1.52;;;;;;;18.03;80.21;101360.31;5025272;28;20014;-75
2022/07/26 03:54:10;;;;;;;7.55;1.80;;;;;;;17.96;80.15;101348.66;5023087;28;20022;-77
2022/07/26 03:56:35;;;;;;;3.40;1.63;;;;;;;17.96;80.30;101354.09;5022114;28;20068;-78
2022/07/26 03:59:08;;;;;;;11.18;1.83;;;;;;;17.92;80.63;101350.13;5025068;28;20458;-78
2022/07/26 04:01:40;;;;;;;5.60;2.03;;;;;;;17.92;80.63;101352.84;5026009;28;20033;-77
2022/07/26 04:04:07;;;;;;;6.90;1.85;;;;;;;17.90;80.54;101355.78;5026081;28;20022;-79
2022/07/26 04:06:32;;;;;;;10.68;2.25;;;;;;;17.90;80.63;101352.22;5025116;28;20037;-78
2022/07/26 04:08:58;;;;;;;7.70;2.20;;;;;;;17.89;80.58;101356.84;5028240;28;20041;-76
2022/07/26 04:11:23;;;;;;;12.85;2.10;;;;;;;17.95;80.75;101357.84;5027576;28;20250;-79
2022/07/26 04:13:48;;;;;;;8.55;2.25;;;;;;;17.99;80.62;101359.09;5028609;28;20156;-79
2022/07/26 04:16:14;;;;;;;17.02;2.72;;;;;;;18.01;80.37;101362.44;5026034;28;20454;-78
2022/07/26 04:18:41;;;;;;;13.23;2.75;;;;;;;18.05;80.18;101358.22;5028280;28;20026;-78
2022/07/26 04:21:06;;;;;;;8.17;2.10;;;;;;;18.11;80.02;101373.66;5027187;28;20080;-77
2022/07/26 04:23:32;;;;;;;12.40;2.33;;;;;;;18.16;81.76;101370.28;5026914;28;20026;-77
2022/07/26 04:25:57;;;;;;;11.52;2.40;;;;;;;18.11;83.39;101372.84;5055770;28;20095;-76
2022/07/26 04:28:25;;;;;;;7.18;1.75;;;;;;;17.98;84.91;101380.06;5017977;28;20493;-78
2022/07/26 04:30:50;;;;;;;11.00;1.80;;;;;;;17.82;86.50;101385.16;5018131;28;20030;-78
2022/07/26 04:33:18;;;;;;;11.00;1.77;;;;;;;17.65;87.70;101382.88;5024655;28;20042;-77
2022/07/26 04:35:44;;;;;;;;;;;;;;;17.57;89.13;101394.03;5033838;28;20022;-77
2022/07/26 04:38:09;;;;;;;12.18;1.92;;;;;;;17.53;89.79;101392.75;5021542;28;19945;-77
2022/07/26 04:40:34;;;;;;;13.88;2.10;;;;;;;17.49;90.11;101391.53;5024296;28;20053;-77
2022/07/26 04:43:00;;;;;;;8.43;1.70;;;;;;;17.47;90.33;101396.34;5021011;28;20022;-76
2022/07/26 04:45:26;;;;;;;12.52;1.70;;;;;;;17.44;90.44;101404.94;5019036;28;20041;-76
2022/07/26 04:47:51;;;;;;;5.45;1.50;;;;;;;17.31;90.35;101406.66;5020504;28;20065;-77
2022/07/26 04:50:18;;;;;;;8.60;1.70;;;;;;;17.24;90.57;101405.81;5026764;28;20030;-78
2022/07/26 04:52:43;;;;;;;5.50;1.00;;;;;;;17.19;90.15;101411.06;5030869;28;20029;-78
2022/07/26 04:55:09;;;;;;;9.60;1.10;;;;;;;17.15;90.85;101411.72;5029669;28;20542;-76
2022/07/26 04:57:35;;;;;;;3.72;0.88;;;;;;;17.06;91.53;101413.78;5052740;28;20684;-78
2022/07/26 05:00:01;;;;;;;4.97;1.23;;;;;;;17.00;92.22;101415.47;5015138;28;20377;-76
2022/07/26 05:02:26;;;;;;;7.30;1.00;;;;;;;16.96;93.08;101421.56;5014259;28;20499;-75
2022/07/26 05:04:51;;;;;;;4.13;1.30;;;;;;;16.92;93.65;101429.28;5014495;28;20033;-76
2022/07/26 05:07:17;;;;;;;7.53;1.63;;;;;;;16.88;94.48;101428.88;5014312;28;20034;-77
2022/07/26 05:09:42;;;;;;;7.95;1.60;;;;;;;16.91;95.68;101432.25;5014252;28;20366;-77
2022/07/26 05:12:08;;;;;;;6.32;1.25;;;;;;;16.89;96.62;101438.69;5014122;28;20030;-78
2022/07/26 05:14:33;;;;;;;4.45;1.50;;;;;;;16.87;96.81;101443.50;5014304;28;20041;-77
2022/07/26 05:16:59;;;;;;;7.55;1.98;;;;;;;16.87;96.91;101443.50;5014080;28;20385;-76
2022/07/26 05:19:24;;;;;;;6.03;1.60;;;;;;;16.82;96.74;101443.28;5014482;28;20033;-75
2022/07/26 05:21:50;;;;;;;10.43;1.95;;;;;;;16.85;97.14;101444.75;5014287;28;20507;-76
2022/07/26 05:24:16;;;;;;;8.90;1.67;;;;;;;16.88;97.45;101444.38;5014682;28;20025;-77
2022/07/26 05:26:41;;;;;;;8.70;1.73;;;;;;;16.89;97.80;101441.41;5014006;28;20096;-78
2022/07/26 05:29:06;;;;;;;13.65;2.70;;;;;;;16.90;97.96;101447.69;5015839;28;20058;-78
2022/07/26 05:31:32;;;;;;;7.65;1.63;;;;;;;16.98;98.48;101457.53;5058655;28;20117;-79
2022/07/26 05:33:57;;;;;;;13.65;2.25;;;;;;;17.02;98.73;101456.06;5033877;28;20045;-78
2022/07/26 05:36:22;;;;;;;9.75;1.75;;;;;;;17.12;98.97;101453.78;5036969;28;20082;-79
2022/07/26 05:38:48;;;;;;;10.65;2.03;;;;;;;17.17;99.68;101458.56;5036996;28;20072;-78
2022/07/26 05:41:13;;;;;;;15.95;2.40;;;;;;;17.22;99.74;101462.34;5035436;28;20117;-78
2022/07/26 05:43:38;;;;;;;8.85;2.20;;;;;;;17.33;100.00;101464.41;5035171;28;20022;-78
2022/07/26 05:46:04;;;;;;;9.27;2.08;;;;;;;17.40;100.00;101464.38;5034389;28;20026;-79
2022/07/26 05:48:29;;;;;;;10.10;2.35;;;;;;;17.41;99.78;101465.25;5033463;28;20482;-77
2022/07/26 05:50:54;;;;;;;11.90;2.00;;;;;;;17.49;99.38;101462.28;5035630;28;20021;-80
2022/07/26 05:53:20;;;;;;;14.93;1.90;;;;;;;17.54;98.31;101470.66;5066608;28;20040;-78
2022/07/26 05:55:45;;;;;;;10.48;1.50;;;;;;;17.48;97.01;101475.06;5034617;28;20056;-82
2022/07/26 05:58:10;;;;;;;15.00;1.90;;;;;;;17.47;96.90;101476.09;5036312;28;20037;-82
2022/07/26 06:00:36;;;;;;;13.55;1.92;;;;;;;17.45;95.95;101477.38;5036027;28;20037;-78
2022/07/26 06:03:20;;;;;;;8.30;1.70;;;;;;;17.50;95.95;101475.66;5067557;28;20037;-80
2022/07/26 06:05:47;;;;;;;12.07;1.50;;;;;;;17.45;93.80;101485.53;5029181;28;20095;-78
2022/07/26 06:08:12;;;;;;;16.77;2.60;;;;;;;17.51;93.65;101487.41;5023211;28;20045;-76
2022/07/26 06:10:38;;;;;;;17.08;1.70;;;;;;;17.62;93.67;101494.09;5059313;28;20033;-77
2022/07/26 06:13:03;;;;;;;13.02;1.75;;;;;;;17.60;92.06;101494.28;5028639;28;20032;-76
2022/07/26 06:15:28;;;;;;;7.35;1.38;;;;;;;17.65;91.24;101502.66;5030350;28;20074;-76
2022/07/26 06:17:54;;;;;;;12.63;1.58;;;;;;;17.75;91.33;101505.78;5028760;28;20025;-77
2022/07/26 06:20:19;;;;;;;13.32;1.95;;;;;;;17.80;90.84;101507.03;5029152;28;20030;-75
2022/07/26 06:22:44;;;;;;;6.97;1.60;;;;;;;17.83;89.74;101515.63;5030509;28;20018;-76
2022/07/26 06:25:10;;;;;;;20.73;1.67;;;;;;;17.87;88.83;101514.16;5024896;28;20153;-76
2022/07/26 06:27:35;;;;;;;10.38;1.73;;;;;;;17.87;88.26;101524.22;5061436;28;20185;-75
2022/07/26 06:30:01;;;;;;;6.80;1.38;;;;;;;17.86;87.53;101525.28;5022195;28;20021;-76
2022/07/26 06:32:26;;;;;;;9.70;1.17;;;;;;;17.87;87.39;101529.66;5033072;28;20026;-79
2022/07/26 06:34:51;;;;;;;10.68;1.55;;;;;;;17.89;87.13;101527.56;5030984;28;20050;-75
2022/07/26 06:37:17;;;;;;;7.40;1.40;;;;;;;17.94;86.68;101533.19;5026002;28;20270;-76
2022/07/26 06:39:42;;;;;;;3.72;0.88;;;;;;;17.94;85.89;101535.94;5028763;28;20488;-78
2022/07/26 06:42:07;;;;;;;8.57;1.20;;;;;;;18.03;86.17;101531.91;5027122;28;20060;-75
2022/07/26 06:44:33;;;;;;;4.63;1.30;;;;;;;18.07;84.72;101552.22;5025443;28;20022;-77
2022/07/26 06:46:58;;;;;;;11.93;1.30;;;;;;;18.08;83.65;101548.44;5029072;28;20030;-78
2022/07/26 06:49:23;;;;;;;8.90;1.35;;;;;;;18.12;82.98;101554.31;5024693;28;20064;-76
2022/07/26 06:51:49;;;;;;;8.57;1.35;;;;;;;18.08;82.42;101542.16;5026086;28;20440;-76
2022/07/26 06:54:14;;;;;;;8.63;1.60;;;;;;;17.99;83.00;101555.19;5023760;28;20045;-76
2022/07/26 06:56:39;;;;;;;8.05;1.27;;;;;;;17.92;84.90;101554.34;5017528;28;20037;-76
2022/07/26 06:59:05;;;;;;;17.40;1.40;;;;;;;17.91;86.34;101564.41;5018365;28;20072;-76
2022/07/26 07:01:30;;;;;;;5.85;1.10;;;;;;;17.93;86.97;101561.47;5020054;28;20069;-75
2022/07/26 07:03:55;;;;;;;7.05;1.45;;;;;;;18.08;86.49;101569.41;5018540;28;20282;-76
2022/07/26 07:06:21;;;;;;;9.55;1.42;;;;;;;18.17;85.98;101562.69;5015725;28;20051;-76
2022/07/26 07:08:48;;;;;;;3.65;1.10;;;;;;;18.25;86.02;101558.88;5015975;28;20034;-76
2022/07/26 07:11:13;;;;;;;7.05;1.10;;;;;;;18.40;85.29;101567.59;5019412;28;20077;-77
2022/07/26 07:13:38;;;;;;;8.38;2.20;;;;;;;18.66;85.21;101569.38;5024607;28;20045;-76
2022/07/26 07:16:04;;;;;;;4.90;0.70;;;;;;;18.89;80.90;101571.59;5021156;28;20026;-77
2022/07/26 07:18:29;;;;;;;6.97;1.17;;;;;;;18.99;79.73;101577.41;5017339;28;20034;-76
2022/07/26 07:20:54;;;;;;;6.05;1.20;;;;;;;19.19;80.23;101581.88;5018370;28;20102;-76
2022/07/26 07:23:22;;;;;;;9.25;1.30;;;;;;;19.26;79.42;101579.94;5051887;28;20054;-76
2022/07/26 07:25:48;;;;;;;7.35;1.10;;;;;;;19.24;78.31;101584.78;5016882;28;20049;-75
2022/07/26 07:28:13;;;;;;;6.47;1.33;;;;;;;19.31;77.78;101593.75;5016223;28;20050;-76
2022/07/26 07:30:38;;;;;;;8.43;1.45;;;;;;;19.29;78.34;101596.69;5020891;28;20294;-77
2022/07/26 07:33:04;;;;;;;13.27;2.20;;;;;;;19.29;78.69;101598.59;5026319;28;20073;-75
2022/07/26 07:35:29;;;;;;;5.50;1.20;;;;;;;19.27;78.76;101600.69;5025246;28;20421;-77
2022/07/26 07:37:55;;;;;;;7.90;1.05;;;;;;;19.27;78.03;101600.69;5020582;28;20030;-75
2022/07/26 07:40:20;;;;;;;10.10;1.00;;;;;;;19.32;76.38;101603.59;5018693;28;20022;-75
2022/07/26 07:42:46;;;;;;;14.10;2.05;;;;;;;19.37;75.11;101606.50;5022175;28;20022;-75
2022/07/26 07:45:11;;;;;;;6.57;1.40;;;;;;;19.46;74.27;101607.91;5016447;28;20033;-76
2022/07/26 07:47:37;;;;;;;4.30;1.38;;;;;;;20.20;75.05;101607.25;5016281;28;20049;-76
2022/07/26 07:50:03;;;;;;;5.90;0.93;;;;;;;20.64;71.21;101600.63;5015736;28;20026;-76
2022/07/26 07:52:28;;;;;;;5.28;0.80;;;;;;;21.14;69.67;101605.81;5021056;28;20355;-76
2022/07/26 07:54:53;;;;;;;6.05;0.93;;;;;;;22.41;66.27;101609.09;5019127;28;20030;-77
2022/07/26 07:57:19;;;;;;;5.00;0.90;;;;;;;24.06;57.26;101600.78;5053361;28;20026;-76
2022/07/26 07:59:44;;;;;;;5.70;0.90;;;;;;;24.69;53.68;101607.66;5014550;28;20084;-76
2022/07/26 08:02:11;;;;;;;6.72;1.23;;;;;;;24.19;52.90;101613.34;5014330;28;20026;-75
2022/07/26 08:04:37;;;;;;;5.78;1.05;;;;;;;23.92;55.38;101602.25;5013169;28;20033;-76
2022/07/26 08:07:02;;;;;;;5.07;0.98;;;;;;;24.42;53.15;101612.28;5013869;28;20434;-75
2022/07/26 08:09:27;;;;;;;6.00;0.90;;;;;;;23.94;54.38;101622.06;5012904;28;20025;-76
2022/07/26 08:11:53;;;;;;;6.82;1.23;;;;;;;23.24;55.28;101613.22;5012170;28;20109;-77
2022/07/26 08:14:18;;;;;;;10.13;1.95;;;;;;;22.65;57.29;101616.22;5012695;28;20052;-76
2022/07/26 08:16:44;;;;;;;3.35;0.90;;;;;;;22.30;58.91;101619.88;5013451;28;20026;-76
2022/07/26 08:19:10;;;;;;;9.57;1.30;;;;;;;21.93;58.51;101619.28;5015544;28;20034;-75
2022/07/26 08:21:36;;;;;;;9.88;1.17;;;;;;;21.56;59.57;101624.97;5012584;28;20509;-76
2022/07/26 08:24:02;;;;;;;9.07;1.30;;;;;;;21.36;60.47;101629.94;5011975;28;20029;-76
2022/07/26 08:26:27;;;;;;;6.53;1.30;;;;;;;21.15;61.58;101623.91;5013108;28;20018;-76
2022/07/26 08:28:53;;;;;;;5.47;1.02;;;;;;;20.96;61.73;101638.72;5046230;28;20080;-76
2022/07/26 08:31:21;;;;;;;8.38;1.55;;;;;;;20.65;62.53;101635.13;5012417;28;20073;-75
2022/07/26 08:33:47;;;;;;;7.32;1.33;;;;;;;20.40;62.45;101643.38;5014083;28;20054;-75
2022/07/26 08:36:16;;;;;;;8.35;1.30;;;;;;;20.45;63.05;101646.25;5015565;28;20080;-77
2022/07/26 08:38:43;;;;;;;8.15;1.00;;;;;;;20.72;63.67;101649.56;5015110;28;20033;-75
2022/07/26 08:41:08;;;;;;;7.75;1.48;;;;;;;21.08;63.83;101658.75;5015247;28;20030;-76
2022/07/26 08:43:34;;;;;;;9.90;1.58;;;;;;;20.96;63.21;101663.38;5014962;28;20033;-75
2022/07/26 08:46:02;;;;;;;7.85;1.77;;;;;;;20.73;63.63;101659.44;5012313;28;20030;-76
2022/07/26 08:48:28;;;;;;;9.18;1.38;;;;;;;20.52;64.38;101659.88;5015544;28;20022;-76
2022/07/26 08:50:56;;;;;;;9.57;1.63;;;;;;;20.19;65.30;101669.25;5019734;28;20037;-76
2022/07/26 08:53:22;;;;;;;11.43;1.65;;;;;;;20.00;65.19;101670.28;5047482;28;20018;-78
2022/07/26 08:55:47;;;;;;;11.80;1.50;;;;;;;19.93;65.64;101668.47;5028808;28;20159;-77
2022/07/26 08:58:16;;;;;;;5.13;1.20;;;;;;;19.91;65.91;101669.75;5043474;28;20034;-76
2022/07/26 09:00:42;;;;;;;7.60;1.30;;;;;;;20.03;65.57;101676.13;5011617;28;20088;-76
2022/07/26 09:03:23;;;;;;;11.73;1.30;;;;;;;20.02;64.76;101673.66;5011828;28;20342;-76
2022/07/26 09:05:48;;;;;;;6.30;1.17;;;;;;;20.01;65.52;101681.00;5012806;28;20026;-77
2022/07/26 09:08:31;;;;;;;6.47;1.40;;;;;;;20.06;64.50;101683.06;5012180;28;20397;-76
2022/07/26 09:10:58;;;;;;;14.25;1.77;;;;;;;19.95;64.98;101685.47;5046626;28;20452;-77
2022/07/26 09:13:23;;;;;;;13.68;2.17;;;;;;;19.91;64.76;101689.72;5012746;28;20516;-78
2022/07/26 09:16:08;;;;;;;5.28;1.35;;;;;;;19.74;64.01;101691.31;5013982;28;20137;-77
2022/07/26 09:18:33;;;;;;;13.68;1.73;;;;;;;19.71;63.59;101699.97;5012887;28;20041;-75
2022/07/26 09:21:00;;;;;;;6.15;1.30;;;;;;;19.64;63.60;101694.53;5011397;28;20030;-76
2022/07/26 09:23:37;;;;;;;17.20;2.03;;;;;;;19.65;63.65;101704.38;5042779;28;20046;-76
2022/07/26 09:26:03;;;;;;;8.70;1.15;;;;;;;19.72;63.02;101701.63;5013872;28;20026;-77
2022/07/26 09:28:30;;;;;;;8.02;1.23;;;;;;;20.10;63.54;101715.19;5020001;28;20029;-77
2022/07/26 09:30:58;;;;;;;8.07;0.95;;;;;;;20.39;62.94;101715.53;5010459;28;20097;-75
2022/07/26 09:33:25;;;;;;;4.72;0.88;;;;;;;20.97;60.02;101715.09;5015649;28;20054;-76
2022/07/26 09:36:02;;;;;;;4.47;1.00;;;;;;;21.74;57.99;101719.09;5013721;28;20026;-77
2022/07/26 09:38:41;;;;;;;3.97;0.80;;;;;;;21.97;55.19;101718.31;5052598;28;20018;-77
2022/07/26 09:41:21;;;;;;;4.47;1.13;;;;;;;21.81;55.95;101719.84;5016792;28;20092;-76
2022/07/26 09:43:47;;;;;;;4.05;0.90;;;;;;;21.77;56.91;101715.91;5016227;28;20045;-77
2022/07/26 09:46:13;;;;;;;6.45;0.95;;;;;;;21.53;57.89;101728.69;5016436;28;20033;-77
2022/07/26 09:48:39;;;;;;;6.43;1.13;;;;;;;21.24;58.50;101740.22;5019089;28;20029;-76
2022/07/26 09:51:07;;;;;;;7.10;1.17;;;;;;;20.93;63.02;101745.88;5017746;28;20053;-77
2022/07/26 09:53:53;;;;;;;6.75;1.10;;;;;;;20.44;65.14;101748.50;5015048;28;20453;-78
2022/07/26 09:56:18;;;;;;;7.97;1.27;;;;;;;20.00;67.94;101741.34;5019581;28;20037;-77
2022/07/26 09:58:44;;;;;;;3.47;1.20;;;;;;;19.78;69.94;101739.00;5016203;28;20040;-78
2022/07/26 10:01:09;;;;;;;5.30;1.30;;;;;;;19.80;69.53;101746.94;5020436;28;20038;-76
2022/07/26 10:03:35;;;;;;;9.77;1.48;;;;;;;19.76;69.01;101741.09;5052208;28;20101;-76
2022/07/26 10:06:02;;;;;;;7.75;1.80;;;;;;;19.86;68.40;101746.91;5020814;28;20098;-76
2022/07/26 10:08:28;;;;;;;;;;;;;;;20.18;66.47;101750.41;5025205;28;20494;-77
2022/07/26 10:10:59;;;;;;;6.38;1.10;;;;;;;20.64;64.46;101739.28;5042198;28;19959;-77
2022/07/26 10:13:26;;;;;;;8.55;1.30;;;;;;;21.02;61.42;101742.63;5021657;28;20451;-76
2022/07/26 10:15:51;;;;;;;6.65;1.45;;;;;;;21.39;57.99;101733.53;5026590;28;20064;-79
2022/07/26 10:18:37;;;;;;;7.35;1.17;;;;;;;21.60;57.68;101729.44;5028343;28;20030;-77
2022/07/26 10:21:14;;;;;;;7.10;1.33;;;;;;;21.60;57.11;101741.22;5020141;28;20097;-77
2022/07/26 10:23:44;;;;;;;5.50;0.90;;;;;;;21.66;57.74;101740.28;5016115;28;20109;-77
2022/07/26 10:26:35;;;;;;;6.90;1.10;;;;;;;21.59;57.35;101745.06;5016027;28;20113;-76
2022/07/26 10:29:15;;;;;;;6.18;1.85;;;;;;;21.87;57.24;101754.53;5015340;28;20125;-78
2022/07/26 10:31:47;;;;;;;7.88;1.60;;;;;;;22.33;54.67;101755.69;5017052;28;20141;-78
2022/07/26 10:34:35;;;;;;;11.68;1.60;;;;;;;23.20;52.15;101760.34;5018227;28;20061;-77
2022/07/26 10:37:05;;;;;;;9.32;1.50;;;;;;;23.80;51.07;101759.88;5022319;28;20031;-79
2022/07/26 10:39:31;;;;;;;10.90;1.40;;;;;;;24.34;50.54;101758.53;5020255;28;20018;-76
2022/07/26 10:42:02;;;;;;;6.30;1.67;;;;;;;24.69;49.09;101767.31;5019802;28;20491;-77
2022/07/26 10:44:30;;;;;;;11.80;1.55;;;;;;;24.38;48.06;101770.69;5016496;28;20026;-76
2022/07/26 10:47:08;;;;;;;6.88;1.50;;;;;;;24.25;48.53;101772.72;5017700;28;20121;-77
2022/07/26 10:49:35;;;;;;;5.65;1.40;;;;;;;24.86;46.61;101770.03;5018475;28;20025;-77
2022/07/26 10:52:18;;;;;;;7.30;1.55;;;;;;;25.67;44.17;101776.75;5022556;28;20025;-76
2022/07/26 10:54:59;;;;;;;5.22;1.30;;;;;;;26.44;42.60;101773.59;5012623;28;20029;-78
2022/07/26 10:57:26;;;;;;;4.30;1.05;;;;;;;27.19;39.70;101769.88;5018684;28;20113;-76
2022/07/26 10:59:56;;;;;;;7.05;1.67;;;;;;;27.18;39.13;101769.03;5016304;28;20394;-76
2022/07/26 11:02:23;;;;;;;7.60;1.20;;;;;;;27.98;37.98;101780.53;5020641;28;20044;-77
2022/07/26 11:04:48;;;;;;;6.18;1.35;;;;;;;28.67;38.48;101779.13;5015437;28;20029;-78
2022/07/26 11:07:14;;;;;;;9.07;1.80;;;;;;;28.01;37.15;101782.75;5015509;28;20385;-76
2022/07/26 11:09:40;;;;;;;5.72;1.60;;;;;;;26.91;37.34;101781.06;5014818;28;20088;-77
2022/07/26 11:12:19;;;;;;;6.13;1.40;;;;;;;26.21;39.49;101783.06;5015006;28;20026;-78
2022/07/26 11:14:44;;;;;;;7.80;1.70;;;;;;;26.85;40.29;101792.34;5017675;28;20025;-77
2022/07/26 11:17:27;;;;;;;8.10;1.77;;;;;;;26.56;39.88;101783.63;5016399;28;20021;-76
2022/07/26 11:19:52;;;;;;;6.05;1.60;;;;;;;26.17;40.25;101793.00;5023528;28;20044;-78
2022/07/26 11:22:18;;;;;;;6.57;1.38;;;;;;;25.57;41.52;101794.88;5021388;28;20018;-76